sensor_id;sensor_type;location;lat;lon;timestamp;P1;durP1;ratioP1;P2;durP2;ratioP2
54919;SDS011;63804;53.120;8.764;2022-12-18T00:02:00;38.38;;;20.10;;
54919;SDS011;63804;53.120;8.764;2022-12-18T00:04:26;39.15;;;19.38;;
54919;SDS011;63804;53.120;8.764;2022-12-18T00:06:52;38.67;;;20.70;;
54919;SDS011;63804;53.120;8.764;2022-12-18T00:09:18;36.35;;;19.83;;
54919;SDS011;63804;53.120;8.764;2022-12-18T00:11:45;40.03;;;20.10;;
54919;SDS011;63804;53.120;8.764;2022-12-18T00:14:11;39.90;;;20.13;;
54919;SDS011;63804;53.120;8.764;2022-12-18T00:16:38;41.53;;;21.20;;
54919;SDS011;63804;53.120;8.764;2022-12-18T00:19:04;41.47;;;19.85;;
54919;SDS011;63804;53.120;8.764;2022-12-18T00:21:30;38.05;;;19.88;;
54919;SDS011;63804;53.120;8.764;2022-12-18T00:23:58;37.50;;;19.60;;
54919;SDS011;63804;53.120;8.764;2022-12-18T00:26:25;45.65;;;21.02;;
54919;SDS011;63804;53.120;8.764;2022-12-18T00:28:53;38.20;;;20.67;;
54919;SDS011;63804;53.120;8.764;2022-12-18T00:31:20;39.75;;;20.52;;
54919;SDS011;63804;53.120;8.764;2022-12-18T00:33:47;36.95;;;19.75;;
54919;SDS011;63804;53.120;8.764;2022-12-18T00:36:14;41.17;;;20.17;;
54919;SDS011;63804;53.120;8.764;2022-12-18T00:38:48;39.08;;;19.90;;
54919;SDS011;63804;53.120;8.764;2022-12-18T00:41:14;36.70;;;19.73;;
54919;SDS011;63804;53.120;8.764;2022-12-18T00:44:02;38.20;;;19.23;;
54919;SDS011;63804;53.120;8.764;2022-12-18T00:46:28;36.63;;;18.75;;
54919;SDS011;63804;53.120;8.764;2022-12-18T00:48:54;34.55;;;19.00;;
54919;SDS011;63804;53.120;8.764;2022-12-18T00:51:19;36.80;;;19.13;;
54919;SDS011;63804;53.120;8.764;2022-12-18T00:53:45;37.85;;;18.40;;
54919;SDS011;63804;53.120;8.764;2022-12-18T00:56:11;35.28;;;18.33;;
54919;SDS011;63804;53.120;8.764;2022-12-18T00:58:37;35.75;;;18.65;;
54919;SDS011;63804;53.120;8.764;2022-12-18T01:01:06;38.92;;;19.38;;
54919;SDS011;63804;53.120;8.764;2022-12-18T01:03:32;35.35;;;18.25;;
54919;SDS011;63804;53.120;8.764;2022-12-18T01:05:58;36.58;;;19.23;;
54919;SDS011;63804;53.120;8.764;2022-12-18T01:08:24;36.63;;;18.35;;
54919;SDS011;63804;53.120;8.764;2022-12-18T01:10:50;36.80;;;18.83;;
54919;SDS011;63804;53.120;8.764;2022-12-18T01:13:16;33.15;;;17.58;;
54919;SDS011;63804;53.120;8.764;2022-12-18T01:15:47;34.47;;;17.98;;
54919;SDS011;63804;53.120;8.764;2022-12-18T01:18:14;34.47;;;18.48;;
54919;SDS011;63804;53.120;8.764;2022-12-18T01:20:40;33.45;;;17.80;;
54919;SDS011;63804;53.120;8.764;2022-12-18T01:23:05;35.22;;;17.85;;
54919;SDS011;63804;53.120;8.764;2022-12-18T01:25:31;32.72;;;17.70;;
54919;SDS011;63804;53.120;8.764;2022-12-18T01:27:57;34.70;;;17.05;;
54919;SDS011;63804;53.120;8.764;2022-12-18T01:30:22;32.13;;;17.15;;
54919;SDS011;63804;53.120;8.764;2022-12-18T01:32:48;32.97;;;16.63;;
54919;SDS011;63804;53.120;8.764;2022-12-18T01:35:14;30.75;;;16.27;;
54919;SDS011;63804;53.120;8.764;2022-12-18T01:37:40;31.98;;;16.70;;
54919;SDS011;63804;53.120;8.764;2022-12-18T01:40:06;30.40;;;16.05;;
54919;SDS011;63804;53.120;8.764;2022-12-18T01:42:32;29.60;;;15.55;;
54919;SDS011;63804;53.120;8.764;2022-12-18T01:49:58;28.85;;;16.38;;
54919;SDS011;63804;53.120;8.764;2022-12-18T01:52:28;30.13;;;15.38;;
54919;SDS011;63804;53.120;8.764;2022-12-18T01:54:57;29.83;;;15.85;;
54919;SDS011;63804;53.120;8.764;2022-12-18T01:57:26;28.40;;;15.02;;
54919;SDS011;63804;53.120;8.764;2022-12-18T01:59:53;32.45;;;16.13;;
54919;SDS011;63804;53.120;8.764;2022-12-18T02:02:24;30.27;;;15.45;;
54919;SDS011;63804;53.120;8.764;2022-12-18T02:04:52;29.50;;;14.90;;
54919;SDS011;63804;53.120;8.764;2022-12-18T02:12:57;27.85;;;13.95;;
54919;SDS011;63804;53.120;8.764;2022-12-18T02:16:21;25.65;;;13.57;;
54919;SDS011;63804;53.120;8.764;2022-12-18T02:18:31;32.13;;;14.93;;
54919;SDS011;63804;53.120;8.764;2022-12-18T02:21:04;31.75;;;14.85;;
54919;SDS011;63804;53.120;8.764;2022-12-18T02:26:55;30.77;;;14.10;;
54919;SDS011;63804;53.120;8.764;2022-12-18T02:29:27;25.58;;;13.60;;
54919;SDS011;63804;53.120;8.764;2022-12-18T02:32:00;25.45;;;13.30;;
54919;SDS011;63804;53.120;8.764;2022-12-18T02:34:30;32.40;;;13.88;;
54919;SDS011;63804;53.120;8.764;2022-12-18T02:36:58;25.42;;;13.02;;
54919;SDS011;63804;53.120;8.764;2022-12-18T02:39:28;29.83;;;13.13;;
54919;SDS011;63804;53.120;8.764;2022-12-18T02:41:56;25.95;;;13.20;;
54919;SDS011;63804;53.120;8.764;2022-12-18T02:44:23;24.30;;;12.45;;
54919;SDS011;63804;53.120;8.764;2022-12-18T02:46:50;26.83;;;12.90;;
54919;SDS011;63804;53.120;8.764;2022-12-18T02:54:50;24.30;;;12.88;;
54919;SDS011;63804;53.120;8.764;2022-12-18T02:57:33;25.15;;;11.65;;
54919;SDS011;63804;53.120;8.764;2022-12-18T03:00:10;27.52;;;13.00;;
54919;SDS011;63804;53.120;8.764;2022-12-18T03:08:46;25.15;;;11.82;;
54919;SDS011;63804;53.120;8.764;2022-12-18T03:11:16;23.52;;;11.50;;
54919;SDS011;63804;53.120;8.764;2022-12-18T03:14:02;22.92;;;11.55;;
54919;SDS011;63804;53.120;8.764;2022-12-18T03:16:32;25.33;;;12.32;;
54919;SDS011;63804;53.120;8.764;2022-12-18T03:19:05;23.73;;;11.70;;
54919;SDS011;63804;53.120;8.764;2022-12-18T03:21:49;21.83;;;11.10;;
54919;SDS011;63804;53.120;8.764;2022-12-18T03:24:17;23.90;;;11.63;;
54919;SDS011;63804;53.120;8.764;2022-12-18T03:26:46;25.48;;;11.75;;
54919;SDS011;63804;53.120;8.764;2022-12-18T03:29:18;22.55;;;9.90;;
54919;SDS011;63804;53.120;8.764;2022-12-18T03:32:05;23.00;;;10.68;;
54919;SDS011;63804;53.120;8.764;2022-12-18T03:34:37;21.02;;;10.13;;
54919;SDS011;63804;53.120;8.764;2022-12-18T03:37:05;25.58;;;10.48;;
54919;SDS011;63804;53.120;8.764;2022-12-18T03:39:38;19.20;;;9.95;;
54919;SDS011;63804;53.120;8.764;2022-12-18T03:42:18;18.42;;;9.38;;
54919;SDS011;63804;53.120;8.764;2022-12-18T03:45:37;20.58;;;10.60;;
54919;SDS011;63804;53.120;8.764;2022-12-18T03:48:04;21.80;;;10.63;;
54919;SDS011;63804;53.120;8.764;2022-12-18T03:55:54;22.00;;;10.52;;
54919;SDS011;63804;53.120;8.764;2022-12-18T03:58:23;24.08;;;11.30;;
54919;SDS011;63804;53.120;8.764;2022-12-18T04:00:51;22.38;;;11.07;;
54919;SDS011;63804;53.120;8.764;2022-12-18T04:03:20;21.92;;;10.52;;
54919;SDS011;63804;53.120;8.764;2022-12-18T04:05:48;20.92;;;11.23;;
54919;SDS011;63804;53.120;8.764;2022-12-18T04:08:16;21.15;;;10.85;;
54919;SDS011;63804;53.120;8.764;2022-12-18T04:10:43;22.83;;;11.80;;
54919;SDS011;63804;53.120;8.764;2022-12-18T04:13:09;28.55;;;12.18;;
54919;SDS011;63804;53.120;8.764;2022-12-18T04:15:35;22.83;;;10.93;;
54919;SDS011;63804;53.120;8.764;2022-12-18T04:18:02;23.08;;;12.02;;
54919;SDS011;63804;53.120;8.764;2022-12-18T04:20:29;26.67;;;12.63;;
54919;SDS011;63804;53.120;8.764;2022-12-18T04:22:55;22.27;;;10.88;;
54919;SDS011;63804;53.120;8.764;2022-12-18T04:25:21;24.15;;;11.50;;
54919;SDS011;63804;53.120;8.764;2022-12-18T04:27:46;18.50;;;10.52;;
54919;SDS011;63804;53.120;8.764;2022-12-18T04:30:12;22.58;;;10.40;;
54919;SDS011;63804;53.120;8.764;2022-12-18T04:32:38;23.33;;;10.88;;
54919;SDS011;63804;53.120;8.764;2022-12-18T04:35:04;22.13;;;10.40;;
54919;SDS011;63804;53.120;8.764;2022-12-18T04:37:32;21.60;;;10.35;;
54919;SDS011;63804;53.120;8.764;2022-12-18T04:39:57;21.02;;;10.52;;
54919;SDS011;63804;53.120;8.764;2022-12-18T04:42:23;20.60;;;10.15;;
54919;SDS011;63804;53.120;8.764;2022-12-18T04:44:49;21.38;;;9.43;;
54919;SDS011;63804;53.120;8.764;2022-12-18T04:47:14;22.40;;;10.38;;
54919;SDS011;63804;53.120;8.764;2022-12-18T04:49:40;22.38;;;10.40;;
54919;SDS011;63804;53.120;8.764;2022-12-18T04:52:06;21.65;;;9.73;;
54919;SDS011;63804;53.120;8.764;2022-12-18T04:54:34;19.20;;;9.45;;
54919;SDS011;63804;53.120;8.764;2022-12-18T04:57:00;20.73;;;10.15;;
54919;SDS011;63804;53.120;8.764;2022-12-18T04:59:26;19.77;;;9.60;;
54919;SDS011;63804;53.120;8.764;2022-12-18T05:01:51;19.65;;;10.07;;
54919;SDS011;63804;53.120;8.764;2022-12-18T05:04:17;22.23;;;10.10;;
54919;SDS011;63804;53.120;8.764;2022-12-18T05:06:43;18.98;;;9.40;;
54919;SDS011;63804;53.120;8.764;2022-12-18T05:09:09;21.92;;;9.63;;
54919;SDS011;63804;53.120;8.764;2022-12-18T05:11:34;19.42;;;9.52;;
54919;SDS011;63804;53.120;8.764;2022-12-18T05:14:01;19.67;;;9.25;;
54919;SDS011;63804;53.120;8.764;2022-12-18T05:16:27;18.73;;;8.73;;
54919;SDS011;63804;53.120;8.764;2022-12-18T05:18:52;18.00;;;8.18;;
54919;SDS011;63804;53.120;8.764;2022-12-18T05:21:18;22.20;;;9.43;;
54919;SDS011;63804;53.120;8.764;2022-12-18T05:23:44;17.58;;;9.18;;
54919;SDS011;63804;53.120;8.764;2022-12-18T05:26:09;19.25;;;9.70;;
54919;SDS011;63804;53.120;8.764;2022-12-18T05:28:40;20.02;;;9.52;;
54919;SDS011;63804;53.120;8.764;2022-12-18T05:31:06;18.88;;;8.68;;
54919;SDS011;63804;53.120;8.764;2022-12-18T05:33:33;17.88;;;8.57;;
54919;SDS011;63804;53.120;8.764;2022-12-18T05:36:04;20.00;;;8.93;;
54919;SDS011;63804;53.120;8.764;2022-12-18T05:38:32;18.92;;;9.10;;
54919;SDS011;63804;53.120;8.764;2022-12-18T05:41:00;20.02;;;8.95;;
54919;SDS011;63804;53.120;8.764;2022-12-18T05:43:26;16.63;;;9.18;;
54919;SDS011;63804;53.120;8.764;2022-12-18T05:45:52;18.30;;;8.93;;
54919;SDS011;63804;53.120;8.764;2022-12-18T05:48:19;18.10;;;8.73;;
54919;SDS011;63804;53.120;8.764;2022-12-18T05:50:46;20.70;;;8.85;;
54919;SDS011;63804;53.120;8.764;2022-12-18T05:53:13;19.45;;;8.65;;
54919;SDS011;63804;53.120;8.764;2022-12-18T05:55:41;19.13;;;9.20;;
54919;SDS011;63804;53.120;8.764;2022-12-18T05:58:08;18.35;;;9.07;;
54919;SDS011;63804;53.120;8.764;2022-12-18T06:00:36;18.92;;;9.00;;
54919;SDS011;63804;53.120;8.764;2022-12-18T06:03:09;18.85;;;9.35;;
54919;SDS011;63804;53.120;8.764;2022-12-18T06:05:38;24.85;;;10.18;;
54919;SDS011;63804;53.120;8.764;2022-12-18T06:08:05;18.40;;;8.73;;
54919;SDS011;63804;53.120;8.764;2022-12-18T06:10:31;18.23;;;8.63;;
54919;SDS011;63804;53.120;8.764;2022-12-18T06:12:57;19.63;;;9.05;;
54919;SDS011;63804;53.120;8.764;2022-12-18T06:15:23;18.73;;;8.70;;
54919;SDS011;63804;53.120;8.764;2022-12-18T06:17:49;18.75;;;8.45;;
54919;SDS011;63804;53.120;8.764;2022-12-18T06:20:15;18.95;;;8.75;;
54919;SDS011;63804;53.120;8.764;2022-12-18T06:22:41;19.40;;;8.93;;
54919;SDS011;63804;53.120;8.764;2022-12-18T06:25:07;17.90;;;8.90;;
54919;SDS011;63804;53.120;8.764;2022-12-18T06:27:33;19.08;;;9.38;;
54919;SDS011;63804;53.120;8.764;2022-12-18T06:29:59;19.67;;;9.05;;
54919;SDS011;63804;53.120;8.764;2022-12-18T06:32:25;18.40;;;9.13;;
54919;SDS011;63804;53.120;8.764;2022-12-18T06:34:52;15.73;;;7.82;;
54919;SDS011;63804;53.120;8.764;2022-12-18T06:37:18;18.63;;;8.65;;
54919;SDS011;63804;53.120;8.764;2022-12-18T06:39:44;19.23;;;8.88;;
54919;SDS011;63804;53.120;8.764;2022-12-18T06:42:10;18.50;;;9.10;;
54919;SDS011;63804;53.120;8.764;2022-12-18T06:44:35;16.80;;;8.38;;
54919;SDS011;63804;53.120;8.764;2022-12-18T06:47:01;18.52;;;8.55;;
54919;SDS011;63804;53.120;8.764;2022-12-18T06:49:27;20.42;;;9.20;;
54919;SDS011;63804;53.120;8.764;2022-12-18T06:51:52;20.65;;;8.52;;
54919;SDS011;63804;53.120;8.764;2022-12-18T06:54:18;18.25;;;8.75;;
54919;SDS011;63804;53.120;8.764;2022-12-18T06:56:47;17.45;;;8.25;;
54919;SDS011;63804;53.120;8.764;2022-12-18T06:59:13;18.50;;;8.25;;
54919;SDS011;63804;53.120;8.764;2022-12-18T07:01:40;20.20;;;8.50;;
54919;SDS011;63804;53.120;8.764;2022-12-18T07:04:06;18.15;;;7.88;;
54919;SDS011;63804;53.120;8.764;2022-12-18T07:06:32;17.90;;;8.32;;
54919;SDS011;63804;53.120;8.764;2022-12-18T07:08:58;17.33;;;7.82;;
54919;SDS011;63804;53.120;8.764;2022-12-18T07:11:24;17.17;;;8.20;;
54919;SDS011;63804;53.120;8.764;2022-12-18T07:13:50;17.20;;;7.80;;
54919;SDS011;63804;53.120;8.764;2022-12-18T07:16:18;20.67;;;8.93;;
54919;SDS011;63804;53.120;8.764;2022-12-18T07:18:45;15.90;;;7.65;;
54919;SDS011;63804;53.120;8.764;2022-12-18T07:21:12;17.33;;;8.45;;
54919;SDS011;63804;53.120;8.764;2022-12-18T07:23:40;14.38;;;7.38;;
54919;SDS011;63804;53.120;8.764;2022-12-18T07:26:10;17.73;;;7.93;;
54919;SDS011;63804;53.120;8.764;2022-12-18T07:28:38;17.17;;;7.55;;
54919;SDS011;63804;53.120;8.764;2022-12-18T07:31:09;15.95;;;7.60;;
54919;SDS011;63804;53.120;8.764;2022-12-18T07:33:37;17.50;;;7.88;;
54919;SDS011;63804;53.120;8.764;2022-12-18T07:36:04;18.35;;;7.45;;
54919;SDS011;63804;53.120;8.764;2022-12-18T07:38:32;16.23;;;7.70;;
54919;SDS011;63804;53.120;8.764;2022-12-18T07:41:06;15.55;;;7.30;;
54919;SDS011;63804;53.120;8.764;2022-12-18T07:43:36;16.00;;;7.43;;
54919;SDS011;63804;53.120;8.764;2022-12-18T07:46:03;17.15;;;8.23;;
54919;SDS011;63804;53.120;8.764;2022-12-18T07:48:29;17.23;;;7.93;;
54919;SDS011;63804;53.120;8.764;2022-12-18T07:50:59;17.35;;;8.25;;
54919;SDS011;63804;53.120;8.764;2022-12-18T07:53:29;18.63;;;7.57;;
54919;SDS011;63804;53.120;8.764;2022-12-18T07:55:59;18.73;;;8.30;;
54919;SDS011;63804;53.120;8.764;2022-12-18T07:58:26;18.27;;;7.60;;
54919;SDS011;63804;53.120;8.764;2022-12-18T08:00:52;17.20;;;7.63;;
54919;SDS011;63804;53.120;8.764;2022-12-18T08:03:18;17.50;;;7.20;;
54919;SDS011;63804;53.120;8.764;2022-12-18T08:05:44;16.90;;;7.50;;
54919;SDS011;63804;53.120;8.764;2022-12-18T08:08:10;15.52;;;8.10;;
54919;SDS011;63804;53.120;8.764;2022-12-18T08:10:36;15.52;;;7.47;;
54919;SDS011;63804;53.120;8.764;2022-12-18T08:13:03;16.98;;;8.10;;
54919;SDS011;63804;53.120;8.764;2022-12-18T08:15:28;19.33;;;8.27;;
54919;SDS011;63804;53.120;8.764;2022-12-18T08:17:57;14.95;;;7.85;;
54919;SDS011;63804;53.120;8.764;2022-12-18T08:20:23;17.45;;;7.78;;
54919;SDS011;63804;53.120;8.764;2022-12-18T08:22:49;18.75;;;8.10;;
54919;SDS011;63804;53.120;8.764;2022-12-18T08:25:14;19.30;;;7.85;;
54919;SDS011;63804;53.120;8.764;2022-12-18T08:27:40;18.27;;;8.23;;
54919;SDS011;63804;53.120;8.764;2022-12-18T08:30:06;16.73;;;7.97;;
54919;SDS011;63804;53.120;8.764;2022-12-18T08:32:33;16.30;;;7.70;;
54919;SDS011;63804;53.120;8.764;2022-12-18T08:34:59;18.80;;;7.85;;
54919;SDS011;63804;53.120;8.764;2022-12-18T08:37:24;15.27;;;7.93;;
54919;SDS011;63804;53.120;8.764;2022-12-18T08:39:50;14.35;;;7.85;;
54919;SDS011;63804;53.120;8.764;2022-12-18T08:42:16;17.73;;;8.05;;
54919;SDS011;63804;53.120;8.764;2022-12-18T08:45:00;17.50;;;8.25;;
54919;SDS011;63804;53.120;8.764;2022-12-18T08:47:26;16.92;;;8.82;;
54919;SDS011;63804;53.120;8.764;2022-12-18T08:49:51;18.38;;;8.55;;
54919;SDS011;63804;53.120;8.764;2022-12-18T08:52:17;20.98;;;8.55;;
54919;SDS011;63804;53.120;8.764;2022-12-18T08:54:43;18.13;;;8.25;;
54919;SDS011;63804;53.120;8.764;2022-12-18T08:57:09;19.58;;;8.30;;
54919;SDS011;63804;53.120;8.764;2022-12-18T08:59:34;19.52;;;8.52;;
54919;SDS011;63804;53.120;8.764;2022-12-18T09:02:00;17.30;;;8.90;;
54919;SDS011;63804;53.120;8.764;2022-12-18T09:04:26;17.52;;;8.40;;
54919;SDS011;63804;53.120;8.764;2022-12-18T09:06:51;19.65;;;8.82;;
54919;SDS011;63804;53.120;8.764;2022-12-18T09:09:20;20.30;;;8.77;;
54919;SDS011;63804;53.120;8.764;2022-12-18T09:11:46;16.83;;;8.48;;
54919;SDS011;63804;53.120;8.764;2022-12-18T09:14:12;20.48;;;8.65;;
54919;SDS011;63804;53.120;8.764;2022-12-18T09:16:44;17.33;;;8.57;;
54919;SDS011;63804;53.120;8.764;2022-12-18T09:19:16;20.55;;;9.07;;
54919;SDS011;63804;53.120;8.764;2022-12-18T09:21:42;17.65;;;8.00;;
54919;SDS011;63804;53.120;8.764;2022-12-18T09:24:08;19.60;;;9.40;;
54919;SDS011;63804;53.120;8.764;2022-12-18T09:26:37;17.65;;;8.20;;
54919;SDS011;63804;53.120;8.764;2022-12-18T09:29:03;18.80;;;8.60;;
54919;SDS011;63804;53.120;8.764;2022-12-18T09:31:29;17.98;;;8.52;;
54919;SDS011;63804;53.120;8.764;2022-12-18T09:33:55;16.63;;;7.95;;
54919;SDS011;63804;53.120;8.764;2022-12-18T09:36:22;16.88;;;8.18;;
54919;SDS011;63804;53.120;8.764;2022-12-18T09:38:47;18.10;;;8.70;;
54919;SDS011;63804;53.120;8.764;2022-12-18T09:41:19;18.15;;;7.85;;
54919;SDS011;63804;53.120;8.764;2022-12-18T09:43:52;18.10;;;8.30;;
54919;SDS011;63804;53.120;8.764;2022-12-18T09:46:45;20.10;;;8.27;;
54919;SDS011;63804;53.120;8.764;2022-12-18T09:49:16;17.77;;;8.10;;
54919;SDS011;63804;53.120;8.764;2022-12-18T09:51:47;19.10;;;8.88;;
54919;SDS011;63804;53.120;8.764;2022-12-18T09:54:25;16.50;;;9.15;;
54919;SDS011;63804;53.120;8.764;2022-12-18T09:57:01;18.90;;;9.13;;
54919;SDS011;63804;53.120;8.764;2022-12-18T09:59:30;18.80;;;8.70;;
54919;SDS011;63804;53.120;8.764;2022-12-18T10:02:04;17.75;;;9.70;;
54919;SDS011;63804;53.120;8.764;2022-12-18T10:04:45;18.15;;;8.90;;
54919;SDS011;63804;53.120;8.764;2022-12-18T10:07:26;19.33;;;8.80;;
54919;SDS011;63804;53.120;8.764;2022-12-18T10:10:04;19.73;;;8.93;;
54919;SDS011;63804;53.120;8.764;2022-12-18T10:12:44;15.68;;;8.57;;
54919;SDS011;63804;53.120;8.764;2022-12-18T10:21:04;16.55;;;8.00;;
54919;SDS011;63804;53.120;8.764;2022-12-18T10:23:42;18.98;;;8.75;;
54919;SDS011;63804;53.120;8.764;2022-12-18T10:26:11;20.50;;;9.40;;
54919;SDS011;63804;53.120;8.764;2022-12-18T10:28:40;17.65;;;8.93;;
54919;SDS011;63804;53.120;8.764;2022-12-18T10:31:07;16.10;;;8.70;;
54919;SDS011;63804;53.120;8.764;2022-12-18T10:33:39;18.05;;;9.07;;
54919;SDS011;63804;53.120;8.764;2022-12-18T10:36:06;19.27;;;9.95;;
54919;SDS011;63804;53.120;8.764;2022-12-18T10:38:32;20.88;;;9.40;;
54919;SDS011;63804;53.120;8.764;2022-12-18T10:41:02;20.10;;;9.43;;
54919;SDS011;63804;53.120;8.764;2022-12-18T10:46:49;18.23;;;8.80;;
54919;SDS011;63804;53.120;8.764;2022-12-18T10:49:23;16.38;;;9.27;;
54919;SDS011;63804;53.120;8.764;2022-12-18T10:54:46;16.85;;;9.32;;
54919;SDS011;63804;53.120;8.764;2022-12-18T10:57:34;19.15;;;9.27;;
54919;SDS011;63804;53.120;8.764;2022-12-18T11:02:48;19.27;;;9.15;;
54919;SDS011;63804;53.120;8.764;2022-12-18T11:05:31;19.10;;;8.98;;
54919;SDS011;63804;53.120;8.764;2022-12-18T11:07:58;21.17;;;9.57;;
54919;SDS011;63804;53.120;8.764;2022-12-18T11:13:08;19.00;;;9.43;;
54919;SDS011;63804;53.120;8.764;2022-12-18T11:15:47;16.83;;;9.43;;
54919;SDS011;63804;53.120;8.764;2022-12-18T11:20:42;16.63;;;8.65;;
54919;SDS011;63804;53.120;8.764;2022-12-18T11:23:15;18.53;;;8.53;;
54919;SDS011;63804;53.120;8.764;2022-12-18T11:25:41;19.02;;;8.57;;
54919;SDS011;63804;53.120;8.764;2022-12-18T11:31:25;19.48;;;8.68;;
54919;SDS011;63804;53.120;8.764;2022-12-18T11:36:44;19.67;;;8.52;;
54919;SDS011;63804;53.120;8.764;2022-12-18T11:41:47;17.77;;;9.15;;
54919;SDS011;63804;53.120;8.764;2022-12-18T11:53:02;17.08;;;7.82;;
54919;SDS011;63804;53.120;8.764;2022-12-18T12:01:03;18.23;;;8.27;;
54919;SDS011;63804;53.120;8.764;2022-12-18T12:03:57;18.27;;;8.23;;
54919;SDS011;63804;53.120;8.764;2022-12-18T12:26:21;15.52;;;7.45;;
54919;SDS011;63804;53.120;8.764;2022-12-18T12:29:17;15.77;;;7.20;;
54919;SDS011;63804;53.120;8.764;2022-12-18T12:32:08;17.25;;;8.50;;
54919;SDS011;63804;53.120;8.764;2022-12-18T12:34:49;16.70;;;7.32;;
54919;SDS011;63804;53.120;8.764;2022-12-18T12:37:40;17.70;;;7.78;;
54919;SDS011;63804;53.120;8.764;2022-12-18T12:40:27;15.75;;;7.20;;
54919;SDS011;63804;53.120;8.764;2022-12-18T12:43:00;14.95;;;7.57;;
54919;SDS011;63804;53.120;8.764;2022-12-18T12:45:54;15.05;;;7.53;;
54919;SDS011;63804;53.120;8.764;2022-12-18T12:48:35;14.23;;;7.17;;
54919;SDS011;63804;53.120;8.764;2022-12-18T12:51:03;16.42;;;7.25;;
54919;SDS011;63804;53.120;8.764;2022-12-18T12:53:37;16.52;;;7.35;;
54919;SDS011;63804;53.120;8.764;2022-12-18T12:56:04;16.27;;;7.63;;
54919;SDS011;63804;53.120;8.764;2022-12-18T13:09:06;14.82;;;7.80;;
54919;SDS011;63804;53.120;8.764;2022-12-18T13:11:42;16.65;;;8.23;;
54919;SDS011;63804;53.120;8.764;2022-12-18T13:14:34;17.05;;;8.15;;
54919;SDS011;63804;53.120;8.764;2022-12-18T13:17:15;19.95;;;8.20;;
54919;SDS011;63804;53.120;8.764;2022-12-18T13:19:44;15.80;;;8.07;;
54919;SDS011;63804;53.120;8.764;2022-12-18T13:22:23;17.52;;;8.45;;
54919;SDS011;63804;53.120;8.764;2022-12-18T13:25:00;16.20;;;8.57;;
54919;SDS011;63804;53.120;8.764;2022-12-18T13:35:39;17.48;;;8.27;;
54919;SDS011;63804;53.120;8.764;2022-12-18T13:38:40;14.27;;;7.85;;
54919;SDS011;63804;53.120;8.764;2022-12-18T13:43:48;17.33;;;8.35;;
54919;SDS011;63804;53.120;8.764;2022-12-18T13:46:19;18.30;;;8.43;;
54919;SDS011;63804;53.120;8.764;2022-12-18T13:51:38;15.25;;;7.65;;
54919;SDS011;63804;53.120;8.764;2022-12-18T13:57:05;17.00;;;8.55;;
54919;SDS011;63804;53.120;8.764;2022-12-18T13:59:50;20.70;;;8.73;;
54919;SDS011;63804;53.120;8.764;2022-12-18T14:02:23;17.83;;;8.27;;
54919;SDS011;63804;53.120;8.764;2022-12-18T14:04:52;14.50;;;7.97;;
54919;SDS011;63804;53.120;8.764;2022-12-18T14:07:22;16.92;;;8.38;;
54919;SDS011;63804;53.120;8.764;2022-12-18T14:09:54;16.77;;;8.73;;
54919;SDS011;63804;53.120;8.764;2022-12-18T14:12:24;16.15;;;9.02;;
54919;SDS011;63804;53.120;8.764;2022-12-18T14:15:17;18.40;;;10.05;;
54919;SDS011;63804;53.120;8.764;2022-12-18T14:17:51;18.63;;;11.07;;
54919;SDS011;63804;53.120;8.764;2022-12-18T14:20:18;20.35;;;11.38;;
54919;SDS011;63804;53.120;8.764;2022-12-18T14:22:45;18.63;;;9.98;;
54919;SDS011;63804;53.120;8.764;2022-12-18T14:25:21;16.95;;;8.88;;
54919;SDS011;63804;53.120;8.764;2022-12-18T14:30:37;16.23;;;8.98;;
54919;SDS011;63804;53.120;8.764;2022-12-18T14:33:11;18.00;;;8.73;;
54919;SDS011;63804;53.120;8.764;2022-12-18T14:35:41;17.17;;;10.52;;
54919;SDS011;63804;53.120;8.764;2022-12-18T14:40:52;17.05;;;10.10;;
54919;SDS011;63804;53.120;8.764;2022-12-18T14:43:29;17.23;;;8.88;;
54919;SDS011;63804;53.120;8.764;2022-12-18T14:45:57;17.05;;;7.95;;
54919;SDS011;63804;53.120;8.764;2022-12-18T14:53:42;15.15;;;7.95;;
54919;SDS011;63804;53.120;8.764;2022-12-18T14:58:39;16.02;;;8.40;;
54919;SDS011;63804;53.120;8.764;2022-12-18T15:01:12;17.67;;;7.18;;
54919;SDS011;63804;53.120;8.764;2022-12-18T15:03:43;18.73;;;8.50;;
54919;SDS011;63804;53.120;8.764;2022-12-18T15:06:16;16.38;;;7.80;;
54919;SDS011;63804;53.120;8.764;2022-12-18T15:08:49;16.67;;;7.70;;
54919;SDS011;63804;53.120;8.764;2022-12-18T15:16:50;17.35;;;7.65;;
54919;SDS011;63804;53.120;8.764;2022-12-18T15:19:19;19.08;;;8.75;;
54919;SDS011;63804;53.120;8.764;2022-12-18T15:21:46;16.95;;;8.55;;
54919;SDS011;63804;53.120;8.764;2022-12-18T15:24:26;19.33;;;9.18;;
54919;SDS011;63804;53.120;8.764;2022-12-18T15:26:55;17.17;;;8.32;;
54919;SDS011;63804;53.120;8.764;2022-12-18T15:29:21;15.93;;;8.20;;
54919;SDS011;63804;53.120;8.764;2022-12-18T15:32:04;17.63;;;8.70;;
54919;SDS011;63804;53.120;8.764;2022-12-18T15:34:31;18.38;;;8.57;;
54919;SDS011;63804;53.120;8.764;2022-12-18T15:37:00;18.45;;;8.25;;
54919;SDS011;63804;53.120;8.764;2022-12-18T15:39:26;17.77;;;8.63;;
54919;SDS011;63804;53.120;8.764;2022-12-18T15:41:52;21.52;;;9.05;;
54919;SDS011;63804;53.120;8.764;2022-12-18T15:44:36;21.10;;;8.63;;
54919;SDS011;63804;53.120;8.764;2022-12-18T15:47:02;19.92;;;8.77;;
54919;SDS011;63804;53.120;8.764;2022-12-18T15:49:28;18.17;;;8.38;;
54919;SDS011;63804;53.120;8.764;2022-12-18T15:51:57;16.13;;;7.45;;
54919;SDS011;63804;53.120;8.764;2022-12-18T15:54:25;21.27;;;9.32;;
54919;SDS011;63804;53.120;8.764;2022-12-18T15:57:10;16.48;;;7.88;;
54919;SDS011;63804;53.120;8.764;2022-12-18T15:59:49;16.42;;;8.00;;
54919;SDS011;63804;53.120;8.764;2022-12-18T16:02:21;18.00;;;7.93;;
54919;SDS011;63804;53.120;8.764;2022-12-18T16:04:48;16.88;;;7.38;;
54919;SDS011;63804;53.120;8.764;2022-12-18T16:07:15;16.15;;;8.00;;
54919;SDS011;63804;53.120;8.764;2022-12-18T16:09:41;15.65;;;7.70;;
54919;SDS011;63804;53.120;8.764;2022-12-18T16:12:21;15.93;;;7.63;;
54919;SDS011;63804;53.120;8.764;2022-12-18T16:14:51;18.80;;;7.25;;
54919;SDS011;63804;53.120;8.764;2022-12-18T16:17:17;17.48;;;7.88;;
54919;SDS011;63804;53.120;8.764;2022-12-18T16:19:43;16.33;;;7.70;;
54919;SDS011;63804;53.120;8.764;2022-12-18T16:22:23;13.98;;;7.15;;
54919;SDS011;63804;53.120;8.764;2022-12-18T16:24:51;17.17;;;7.57;;
54919;SDS011;63804;53.120;8.764;2022-12-18T16:27:18;17.40;;;7.85;;
54919;SDS011;63804;53.120;8.764;2022-12-18T16:29:45;18.17;;;7.90;;
54919;SDS011;63804;53.120;8.764;2022-12-18T16:32:14;17.80;;;7.63;;
54919;SDS011;63804;53.120;8.764;2022-12-18T16:34:42;16.00;;;7.30;;
54919;SDS011;63804;53.120;8.764;2022-12-18T16:37:09;17.05;;;7.53;;
54919;SDS011;63804;53.120;8.764;2022-12-18T16:39:36;15.98;;;7.82;;
54919;SDS011;63804;53.120;8.764;2022-12-18T16:42:03;17.23;;;7.28;;
54919;SDS011;63804;53.120;8.764;2022-12-18T16:44:37;20.05;;;8.10;;
54919;SDS011;63804;53.120;8.764;2022-12-18T16:47:03;15.35;;;7.38;;
54919;SDS011;63804;53.120;8.764;2022-12-18T16:49:29;17.05;;;7.60;;
54919;SDS011;63804;53.120;8.764;2022-12-18T16:51:55;15.70;;;8.40;;
54919;SDS011;63804;53.120;8.764;2022-12-18T16:54:21;17.05;;;7.53;;
54919;SDS011;63804;53.120;8.764;2022-12-18T16:56:46;17.38;;;7.65;;
54919;SDS011;63804;53.120;8.764;2022-12-18T16:59:15;15.45;;;7.32;;
54919;SDS011;63804;53.120;8.764;2022-12-18T17:01:40;17.90;;;7.95;;
54919;SDS011;63804;53.120;8.764;2022-12-18T17:04:07;19.05;;;8.68;;
54919;SDS011;63804;53.120;8.764;2022-12-18T17:06:34;16.88;;;7.43;;